Cleveland, South Carolina
Current Conditions -  °F | °C
As of 3:53 PM on Wednesday 26 Nov 2014 (Local Time) from KGMU Reporting Station
Few Clouds Few Clouds  
Wind Chill: 55°   Ceiling: Unl
Heat Index: 55°   Visibility: 10mi
Dew Point: 38°   Wind: 8mph
Humidity: 53%   Direction: 200°SSW
Pressure: 29.99"   Gusts: NA
Location:  35.07°N, 82.53°W
Report Text: KGMU 262053Z 20007KT 10SM FEW043 FEW055 13/03 A2999 RMK AO2 SLP155 T01280033 55004
Loading
Personal Weather Stations






























Interactive Weather Map New forecast layout! Learn more

10-Day Weather Forecast

Advertisements
Track Severe Weather on mobile